Accueil
METAR-TAF:

METAR-TAF

Aéroports :

Aéroport de Mannheim

Mannheim, Allemagne

latitude: 49-28-21N, longitude: 008-30-56E, altitude: 100 m

Observation

Le bulletin a été fait il y a 22 minutes, à 10:50 UTC
Vent 3 kt de direction variable
Température 12°C
Humidité 54%
Pression 1017 hPa
Visibilité 10 km ou plus
pas de nuages en-dessous de 1500 mètres et pas de cumulonimbus.

METAR: EDFM 031050Z VRB03KT CAVOK 12/03 Q1017

Heure: 13:12 (11:12 UTC)

Prévision

Le bulletin a été fait il y a 3 heures et 12 minutes, à 08:00 UTC
Prévision valable du 03 à 09 UTC au 03 à 18 UTC
Vent 6 kt de sud-ouest
Visibilité 10 km ou plus
Nuages fragmentés à une hauteur de 4000 ft

TAF: EDFM 030800Z 0309/0318 22006KT 9999 BKN040

Observations et prévisions météorologiques de plus de 4000 aéroports (messages METAR et TAF).

Les stations disponibles sont représentées par des disques jaunes et rouges sur la carte.

Passer la souris dessus pour voir le nom de la station.

Cliquer dessus pour voir les observations et prévisions météorologiques.

Pour changer de carte: cliquez sur les boutons verts avec une croix noire pour zoomer, sur le bouton vert avec un tiret pour effectuer un zoom arrière, ou sur les flèches vertes pour les cartes adjacentes.


METAR-TAF: